Latest Weather Observations for Mangalore

IDV60801

Issued at 3:31 pm EDT Wednesday 1 April 2015 (issued every 30 minutes, with the page automatically refreshed every 10 minutes)

About weather observations | Map of weather stations | Latest weather observations for VIC | Other Formats
Station Details ID: 088109 Name: MANGALORE AIRPORT Lat: -36.89 Lon: 145.19 Height: 140.8 m
Data from the previous 72 hours. | See also: Recent months at Mangalore
Date/Time
EDT
Temp
°C
App
Temp
°C
Dew
Point
Rel
Hum
%
Delta-T
°C
Wind Press
QNH
hPa
Press
MSL
hPa
Rain
since 9 am
mm
Dir
 
Spd
km/h
Gust
km/h
Spd
kts
Gust
kts
01/03:30pm 29.4 22.9 9.0 28 11.4 N 33 43 18 23 1015.3 1015.2 0.0
01/03:00pm 28.5 23.0 9.2 30 10.7 N 28 37 15 20 1015.8 1015.7 0.0
01/02:30pm 28.0 22.7 9.8 32 10.2 N 28 39 15 21 1016.4 1016.3 0.0
01/02:00pm 28.4 23.3 10.6 33 10.1 N 28 39 15 21 1017.0 1016.9 0.0
01/01:30pm 27.8 23.2 10.9 35 9.7 NNE 26 37 14 20 1017.5 1017.4 0.0
01/01:00pm 27.5 22.9 11.1 36 9.4 NNE 26 39 14 21 1018.1 1018.0 0.0
01/12:30pm 25.7 20.9 10.3 38 8.6 NNE 26 35 14 19 1018.8 1018.6 0.0
01/12:00pm 25.2 20.8 10.3 39 8.3 NNE 24 33 13 18 1019.5 1019.3 0.0
01/11:30am 25.0 20.3 10.5 40 8.1 NNE 26 35 14 19 1019.8 1019.6 0.0
01/11:00am 22.9 17.4 10.7 46 6.8 NNE 30 37 16 20 1020.4 1020.3 0.0
01/10:30am 22.5 17.8 10.6 47 6.6 NNE 26 35 14 19 1020.9 1020.5 0.0
01/10:00am 22.2 17.1 10.7 48 6.3 NNE 28 37 15 20 1021.2 1020.8 0.0
01/09:30am 21.4 15.5 10.3 49 6.1 NNE 32 44 17 24 1021.2 1020.8 0.0
01/09:00am 20.9 16.1 10.4 51 5.7 NE 26 37 14 20 1021.2 1020.8 0.0
01/08:30am 19.6 15.8 9.8 53 5.2 NE 20 32 11 17 1021.2 1020.8 0.0
01/08:00am 18.5 14.5 9.0 54 5.0 NE 20 24 11 13 1021.0 1020.6 0.0
01/07:30am 17.8 13.7 8.6 55 4.8 NE 20 26 11 14 1020.8 1020.4 0.0
01/07:00am 15.6 12.1 8.6 63 3.6 NE 17 20 9 11 1020.8 1020.4 0.0
01/06:30am 12.5 10.1 7.0 69 2.7 NE 9 11 5 6 1021.0 1020.6 0.0
01/06:00am 10.3 8.1 6.3 76 1.9 NE 7 11 4 6 1021.0 1020.6 0.0
01/05:30am 9.8 8.9 6.0 77 1.8 CALM 0 6 0 3 1020.8 1020.4 0.0
01/05:00am 10.4 8.5 6.5 77 1.8 NE 6 7 3 4 1021.0 1020.6 0.0
01/04:30am 10.6 8.7 6.7 77 1.9 NE 6 9 3 5 1021.2 1020.8 0.0
01/04:00am 10.1 9.1 5.7 74 2.0 CALM 0 0 0 0 1021.3 1020.9 0.0
01/03:30am 10.8 9.8 5.6 70 2.4 CALM 0 0 0 0 1021.3 1020.9 0.0
01/03:00am 11.0 10.2 6.6 74 2.1 CALM 0 0 0 0 1021.6 1021.2 0.0
01/02:30am 11.4 10.6 6.5 72 2.3 CALM 0 0 0 0 1021.8 1021.4 0.0
01/02:00am 12.4 11.5 6.2 66 2.9 CALM 0 0 0 0 1022.0 1021.6 0.0
01/01:30am 13.2 12.6 7.4 68 2.8 CALM 0 0 0 0 1022.1 1021.7 0.0
01/01:00am 12.7 10.7 6.1 64 3.1 NE 6 7 3 4 1022.3 1021.9 0.0
01/12:30am 14.2 12.3 6.8 61 3.6 NE 6 7 3 4 1022.4 1022.0 0.0
01/12:00am 14.0 12.9 6.8 62 3.5 NE 2 6 1 3 1022.4 1022.0 0.0
 
Date/Time
EDT
Temp
°C
App
Temp
°C
Dew
Point
Rel
Hum
%
Delta-T
°C
Wind Press
QNH
hPa
Press
MSL
hPa
Rain
since 9 am
mm
Dir
 
Spd
km/h
Gust
km/h
Spd
kts
Gust
kts
31/11:30pm 14.7 12.5 6.3 57 4.1 NE 7 9 4 5 1022.3 1021.9 0.0
31/11:00pm 15.6 12.8 7.1 57 4.2 NE 11 13 6 7 1022.2 1021.8 0.0
31/10:30pm 15.5 12.7 7.0 57 4.2 NNE 11 13 6 7 1022.6 1022.2 0.0
31/10:00pm 15.6 13.6 6.1 53 4.6 N 6 9 3 5 1022.8 1022.4 0.0
31/09:30pm 15.9 13.9 6.1 52 4.8 N 6 7 3 4 1022.6 1022.2 0.0
31/09:00pm 17.7 15.7 6.3 47 5.6 N 6 7 3 4 1022.4 1022.0 0.0
31/08:30pm 19.2 17.3 6.7 44 6.3 N 6 7 3 4 1022.3 1021.9 0.0
31/08:00pm 20.2 18.0 5.4 38 7.3 N 6 7 3 4 1022.1 1021.7 0.0
31/07:30pm 23.4 20.8 6.2 33 8.8 N 9 11 5 6 1021.9 1021.5 0.0
31/07:00pm 24.9 22.4 6.6 31 9.5 N 9 13 5 7 1021.8 1021.4 0.0
31/06:30pm 26.8 24.5 7.3 29 10.4 NNW 9 13 5 7 1021.7 1021.3 0.0
31/06:00pm 27.3 24.6 7.2 28 10.7 NNW 11 17 6 9 1021.6 1021.2 0.0
31/05:30pm 28.2 25.9 7.4 27 11.2 NNW 9 15 5 8 1021.6 1021.2 0.0
31/05:00pm 28.2 25.4 6.9 26 11.4 NW 11 19 6 10 1021.7 1021.3 0.0
31/04:30pm 27.8 25.8 7.1 27 11.1 N 7 11 4 6 1021.9 1021.5 0.0
31/04:00pm 28.5 25.7 7.1 26 11.5 N 11 20 6 11 1022.2 1021.8 0.0
31/03:30pm 28.4 25.4 7.6 27 11.3 NNW 13 22 7 12 1022.3 1021.9 0.0
31/03:00pm 28.0 24.9 7.3 27 11.1 NNW 13 22 7 12 1022.7 1022.3 0.0
31/02:30pm 27.2 23.7 7.1 28 10.7 N 15 22 8 12 1023.1 1022.7 0.0
31/02:00pm 26.8 23.7 7.3 29 10.4 N 13 20 7 11 1023.4 1023.1 0.0
31/01:30pm 26.7 23.7 7.7 30 10.2 NNE 13 20 7 11 1023.8 1023.5 0.0
31/01:00pm 26.1 23.2 8.1 32 9.7 NNW 13 20 7 11 1024.5 1024.2 0.0
31/12:30pm 25.4 22.9 8.0 33 9.3 N 11 20 6 11 1025.1 1024.8 0.0
31/12:00pm 24.7 22.7 8.6 36 8.7 N 9 15 5 8 1025.7 1025.4 0.0
31/11:30am 23.7 21.8 8.9 39 8.0 SW 9 15 5 8 1026.5 1026.1 0.0
31/11:00am 21.6 20.5 9.8 47 6.4 SW 6 7 3 4 1026.4 1026.0 0.0
31/10:30am 20.3 19.1 10.4 53 5.4 SW 7 9 4 5 1026.6 1026.2 0.0
31/10:00am 18.0 16.0 10.1 60 4.2 SSW 11 13 6 7 1026.5 1026.1 0.0
31/09:30am 16.3 14.0 10.4 68 3.1 SSW 13 17 7 9 1026.4 1026.0 0.0
31/09:00am 14.1 11.5 9.5 74 2.4 SSW 13 17 7 9 1026.2 1025.8 0.0
31/08:30am 12.8 9.8 9.4 80 1.7 SSW 15 19 8 10 1025.9 1025.6 0.0
31/08:00am 11.9 8.4 8.9 82 1.5 SSW 17 20 9 11 1025.6 1025.3 0.0
31/07:30am 11.9 8.8 8.9 82 1.5 SSW 15 19 8 10 1025.2 1024.9 0.0
31/07:00am 12.0 8.9 9.0 82 1.5 SSW 15 19 8 10 1024.9 1024.6 0.0
31/06:30am 12.0 9.3 8.8 81 1.6 SSW 13 19 7 10 1024.7 1024.4 0.0
31/06:00am 12.3 8.9 9.0 80 1.7 SSW 17 20 9 11 1024.5 1024.2 0.0
31/05:30am 12.2 9.5 8.9 80 1.7 SSW 13 19 7 10 1024.3 1024.0 0.0
31/05:00am 12.6 9.6 9.1 79 1.8 SSW 15 20 8 11 1024.2 1023.9 0.0
31/04:30am 12.6 9.1 8.9 78 1.9 SSW 17 22 9 12 1024.2 1023.9 0.0
31/04:00am 12.8 9.3 8.9 77 2.0 SSW 17 20 9 11 1024.4 1024.1 0.0
31/03:30am 13.1 9.7 9.0 76 2.1 SSW 17 22 9 12 1024.5 1024.2 0.0
31/03:00am 13.4 10.7 9.1 75 2.2 SSW 13 17 7 9 1024.6 1024.3 0.0
31/02:30am 13.7 11.1 9.2 74 2.3 SSW 13 17 7 9 1024.8 1024.5 0.0
31/02:00am 14.1 11.1 9.3 73 2.5 SSW 15 19 8 10 1024.9 1024.6 0.0
31/01:30am 14.5 11.9 9.5 72 2.6 SSW 13 17 7 9 1024.9 1024.6 0.0
31/01:00am 14.9 12.3 9.5 70 2.8 SSW 13 17 7 9 1024.9 1024.6 0.0
31/12:30am 15.4 12.7 9.1 66 3.3 SSW 13 17 7 9 1024.9 1024.6 0.0
31/12:00am 16.3 13.6 8.8 61 3.9 SSW 13 19 7 10 1025.0 1024.7 0.0
 
Date/Time
EDT
Temp
°C
App
Temp
°C
Dew
Point
Rel
Hum
%
Delta-T
°C
Wind Press
QNH
hPa
Press
MSL
hPa
Rain
since 9 am
mm
Dir
 
Spd
km/h
Gust
km/h
Spd
kts
Gust
kts
30/11:30pm 17.1 13.9 8.3 56 4.5 SSW 15 22 8 12 1024.9 1024.6 0.0
30/11:00pm 17.3 14.8 8.2 55 4.6 SSW 11 13 6 7 1024.9 1024.6 0.0
30/10:30pm 18.0 15.5 8.3 53 5.0 SSW 11 17 6 9 1024.9 1024.6 0.0
30/10:00pm 18.9 16.1 8.6 51 5.4 SSW 13 19 7 10 1024.6 1024.3 0.0
30/09:30pm 19.8 17.0 8.5 48 5.9 SSW 13 17 7 9 1024.4 1024.1 0.0
30/09:00pm 20.0 17.9 8.4 47 6.1 S 9 11 5 6 1024.3 1024.0 0.0
30/08:30pm 20.4 17.9 8.1 45 6.4 S 11 13 6 7 1024.0 1023.7 0.0
30/08:00pm 21.4 18.9 8.3 43 6.9 S 11 17 6 9 1023.7 1023.4 0.0
30/07:30pm 22.2 18.5 8.0 40 7.5 SSW 17 20 9 11 1023.3 1022.9 0.0
30/07:00pm 23.5 19.8 8.0 37 8.2 SSW 17 22 9 12 1022.9 1022.5 0.0
30/06:30pm 25.2 21.8 7.8 33 9.3 WSW 15 28 8 15 1022.5 1022.1 0.0
30/06:00pm 25.8 21.7 6.4 29 10.1 W 17 20 9 11 1022.2 1021.8 0.0
30/05:30pm 25.9 22.6 6.5 29 10.2 WSW 13 17 7 9 1022.0 1021.6 0.0
30/05:00pm 26.9 22.4 6.3 27 10.8 W 19 30 10 16 1022.0 1021.6 0.0
30/04:30pm 27.4 23.8 6.8 27 11.0 WSW 15 20 8 11 1021.9 1021.5 0.0
30/04:00pm 27.5 24.7 6.8 27 11.0 WSW 11 20 6 11 1022.1 1021.7 0.0
30/03:30pm 26.9 23.7 6.9 28 10.6 NW 13 26 7 14 1022.2 1021.8 0.0
30/03:00pm 26.0 23.9 6.6 29 10.2 NNW 7 11 4 6 1022.5 1022.1 0.0
30/02:30pm 25.8 23.4 6.9 30 10.0 WNW 9 20 5 11 1022.7 1022.3 0.0
30/02:00pm 25.3 22.0 6.5 30 9.8 W 13 20 7 11 1023.3 1022.9 0.0
30/01:30pm 25.1 21.4 6.3 30 9.8 NW 15 33 8 18 1023.5 1023.2 0.0
30/01:00pm 25.0 22.0 6.2 30 9.7 NNW 11 17 6 9 1023.9 1023.6 0.0
30/12:30pm 23.8 21.7 5.7 31 9.2 NW 6 13 3 7 1024.3 1024.0 0.0
30/12:00pm 23.1 20.8 5.5 32 8.9 NW 7 11 4 6 1024.5 1024.2 0.0
30/11:30am 22.4 20.5 6.6 36 8.1 NNW 6 9 3 5 1024.9 1024.6 0.0
30/11:00am 21.2 19.3 6.7 39 7.4 N 6 9 3 5 1025.1 1024.8 0.0
30/10:30am 19.1 17.0 6.6 44 6.3 S 7 9 4 5 1025.0 1024.7 0.0
30/10:00am 16.9 15.1 8.1 56 4.5 S 7 9 4 5 1025.0 1024.7 0.0
30/09:30am 14.3 13.1 8.0 66 3.2 SSW 4 7 2 4 1024.8 1024.5 0.0
30/09:00am 11.7 9.9 8.0 78 1.8 SSW 7 9 4 5 1024.6 1024.3 0.0
30/08:30am 9.9 9.4 7.7 86 1.1 CALM 0 0 0 0 1024.4 1024.1 0.0
30/08:00am 7.6 6.7 6.2 91 0.6 CALM 0 0 0 0 1024.1 1023.8 0.0
30/07:30am 7.4 5.2 5.4 87 0.9 SSW 6 7 3 4 1023.9 1023.6 0.0
30/07:00am 8.4 6.3 5.9 84 1.1 SSW 6 7 3 4 1023.7 1023.4 0.0
30/06:30am 9.6 7.6 7.0 84 1.2 SSW 7 9 4 5 1023.2 1022.8 0.0
30/06:00am 10.1 7.4 7.5 84 1.2 SSW 11 15 6 8 1022.9 1022.5 0.0
30/05:30am 10.3 8.1 7.7 84 1.3 SSW 9 13 5 7 1022.7 1022.3 0.0
30/05:00am 10.4 7.8 7.8 84 1.3 SSW 11 15 6 8 1022.5 1022.1 0.0
30/04:30am 10.5 7.9 7.9 84 1.3 SSW 11 15 6 8 1022.5 1022.1 0.0
30/04:00am 10.8 7.8 7.9 82 1.4 SSW 13 15 7 8 1022.5 1022.1 0.0
30/03:30am 11.2 8.7 8.1 81 1.5 SSW 11 15 6 8 1022.6 1022.2 0.0
30/03:00am 11.6 8.7 8.1 79 1.7 SSW 13 19 7 10 1022.7 1022.3 0.0
30/02:30am 11.9 9.4 8.2 78 1.8 SSW 11 15 6 8 1023.0 1022.6 0.0
30/02:00am 12.4 9.9 8.3 76 2.0 SSW 11 15 6 8 1023.0 1022.6 0.0
30/01:30am 12.8 10.4 8.5 75 2.2 SSW 11 19 6 10 1023.0 1022.6 0.0
30/01:00am 13.2 10.8 8.5 73 2.4 SSW 11 15 6 8 1023.1 1022.7 0.0
30/12:30am 13.9 11.5 8.7 71 2.6 SW 11 13 6 7 1023.1 1022.7 0.0
30/12:00am 14.6 12.2 8.5 67 3.1 SW 11 15 6 8 1023.2 1022.8 0.0
 
Date/Time
EDT
Temp
°C
App
Temp
°C
Dew
Point
Rel
Hum
%
Delta-T
°C
Wind Press
QNH
hPa
Press
MSL
hPa
Rain
since 9 am
mm
Dir
 
Spd
km/h
Gust
km/h
Spd
kts
Gust
kts
29/11:30pm 15.2 13.1 8.2 63 3.5 SW 9 13 5 7 1023.2 1022.8 0.0
29/11:00pm 15.9 13.1 7.1 56 4.4 SSW 11 17 6 9 1023.2 1022.8 0.0
29/10:30pm 16.7 12.7 5.0 46 5.6 SSW 15 22 8 12 1023.2 1022.8 0.0
29/10:18pm 16.9 13.3 4.9 45 5.8 WSW 13 24 7 13 1023.0 1022.6 0.0
29/10:00pm 11.9 9.3 4.2 59 3.5 NNW 7 9 4 5 1022.7 1022.3 0.0
29/09:30pm 13.7 10.6 3.8 51 4.5 NNW 9 9 5 5 1022.5 1022.1 0.0
29/09:00pm 13.6 10.7 2.5 47 4.9 NW 7 9 4 5 1022.2 1021.8 0.0
29/08:30pm 15.9 13.1 3.0 42 5.9 NW 7 9 4 5 1021.9 1021.5 0.0
29/08:00pm 18.3 15.5 3.0 36 7.1 NW 7 9 4 5 1021.6 1021.2 0.0
29/07:30pm 20.4 17.2 3.2 32 8.2 NW 9 11 5 6 1021.3 1020.9 0.0
29/07:00pm 22.7 19.3 3.8 29 9.2 NW 11 15 6 8 1021.1 1020.7 0.0
29/06:30pm 24.2 20.4 4.0 27 10.0 NW 13 22 7 12 1020.8 1020.4 0.0
29/06:00pm 24.8 20.6 4.0 26 10.3 NW 15 20 8 11 1020.6 1020.2 0.0
29/05:30pm 25.0 21.3 4.7 27 10.3 NNW 13 24 7 13 1020.4 1020.0 0.0
29/05:00pm 25.1 20.7 4.8 27 10.2 WNW 17 24 9 13 1020.5 1020.1 0.0
29/04:30pm 25.4 20.7 5.1 27 10.4 WNW 19 28 10 15 1020.5 1020.1 0.0
29/04:00pm 25.7 21.9 5.8 28 10.3 NNW 15 20 8 11 1020.7 1020.3 0.0

Other Formats:

Comma delimited format used in spreadsheet applications
http://www.bom.gov.au/fwo/IDV60801/IDV60801.94874.axf

JavaScript Object Notation format (JSON) in row-major order
http://www.bom.gov.au/fwo/IDV60801/IDV60801.94874.json